CheckWX is a tool to help pilots better visualize weather data.  It is not intended as a substitute for an official pre-flight weather briefing.

02:00:30 UTC

HSKA TAF
Kassala Airport
Kassala, Sudan
TAF HSKA 232300Z 2400/2506 VRB03KT CAVOK

Feb-24@
00:00 UTC

Feb-24 @ 00:00 UTC

Feb-25@
06:00 UTC

Feb-25 @ 06:00 UTC

TAF HSKA 232300Z 2400/2506 VRB03KT CAVOK
Wind
  • Variable at 3 KTS
Conditions
No significant weather
Cloud Levels
  • No significant clouds